sensor_id;sensor_type;location;lat;lon;timestamp;temperature;humidity
69009;SHT31;56065;52.472;13.380;2022-12-29T00:02:09;8.70;85.23
69009;SHT31;56065;52.472;13.380;2022-12-29T00:04:35;8.74;85.21
69009;SHT31;56065;52.472;13.380;2022-12-29T00:07:00;8.84;84.81
69009;SHT31;56065;52.472;13.380;2022-12-29T00:09:26;8.94;84.57
69009;SHT31;56065;52.472;13.380;2022-12-29T00:11:51;8.85;84.20
69009;SHT31;56065;52.472;13.380;2022-12-29T00:14:17;8.85;84.35
69009;SHT31;56065;52.472;13.380;2022-12-29T00:17:21;9.04;83.90
69009;SHT31;56065;52.472;13.380;2022-12-29T00:19:46;8.96;83.95
69009;SHT31;56065;52.472;13.380;2022-12-29T00:22:30;9.01;83.71
69009;SHT31;56065;52.472;13.380;2022-12-29T00:25:13;9.14;83.40
69009;SHT31;56065;52.472;13.380;2022-12-29T00:27:58;9.04;83.64
69009;SHT31;56065;52.472;13.380;2022-12-29T00:30:42;9.00;83.38
69009;SHT31;56065;52.472;13.380;2022-12-29T00:33:29;9.08;83.72
69009;SHT31;56065;52.472;13.380;2022-12-29T00:36:20;9.17;83.05
69009;SHT31;56065;52.472;13.380;2022-12-29T00:38:51;9.11;83.15
69009;SHT31;56065;52.472;13.380;2022-12-29T00:41:36;9.21;82.94
69009;SHT31;56065;52.472;13.380;2022-12-29T00:44:20;9.14;83.28
69009;SHT31;56065;52.472;13.380;2022-12-29T00:46:45;9.10;83.27
69009;SHT31;56065;52.472;13.380;2022-12-29T00:49:12;9.22;83.46
69009;SHT31;56065;52.472;13.380;2022-12-29T00:54:27;9.15;83.65
69009;SHT31;56065;52.472;13.380;2022-12-29T00:56:53;9.21;83.28
69009;SHT31;56065;52.472;13.380;2022-12-29T00:59:19;9.20;83.45
69009;SHT31;56065;52.472;13.380;2022-12-29T01:01:45;9.15;83.51
69009;SHT31;56065;52.472;13.380;2022-12-29T01:04:11;9.03;83.41
69009;SHT31;56065;52.472;13.380;2022-12-29T01:06:39;9.11;83.74
69009;SHT31;56065;52.472;13.380;2022-12-29T01:09:05;9.21;83.44
69009;SHT31;56065;52.472;13.380;2022-12-29T01:11:49;9.21;83.33
69009;SHT31;56065;52.472;13.380;2022-12-29T01:14:15;9.04;83.57
69009;SHT31;56065;52.472;13.380;2022-12-29T01:16:41;9.01;83.59
69009;SHT31;56065;52.472;13.380;2022-12-29T01:19:06;9.03;83.79
69009;SHT31;56065;52.472;13.380;2022-12-29T01:21:32;9.10;83.73
69009;SHT31;56065;52.472;13.380;2022-12-29T01:24:00;9.05;83.38
69009;SHT31;56065;52.472;13.380;2022-12-29T01:26:25;9.07;83.06
69009;SHT31;56065;52.472;13.380;2022-12-29T01:28:51;9.07;83.14
69009;SHT31;56065;52.472;13.380;2022-12-29T01:31:16;9.18;83.07
69009;SHT31;56065;52.472;13.380;2022-12-29T01:33:42;9.39;82.81
69009;SHT31;56065;52.472;13.380;2022-12-29T01:36:10;9.32;82.37
69009;SHT31;56065;52.472;13.380;2022-12-29T01:38:37;9.45;82.82
69009;SHT31;56065;52.472;13.380;2022-12-29T01:41:04;9.51;82.78
69009;SHT31;56065;52.472;13.380;2022-12-29T01:43:44;9.48;82.83
69009;SHT31;56065;52.472;13.380;2022-12-29T01:46:42;9.49;82.81
69009;SHT31;56065;52.472;13.380;2022-12-29T01:49:14;9.36;83.61
69009;SHT31;56065;52.472;13.380;2022-12-29T01:51:45;9.32;83.76
69009;SHT31;56065;52.472;13.380;2022-12-29T01:54:25;9.34;83.54
69009;SHT31;56065;52.472;13.380;2022-12-29T01:56:53;9.25;83.59
69009;SHT31;56065;52.472;13.380;2022-12-29T01:59:22;9.21;84.01
69009;SHT31;56065;52.472;13.380;2022-12-29T02:01:50;9.21;84.26
69009;SHT31;56065;52.472;13.380;2022-12-29T02:04:16;9.10;83.82
69009;SHT31;56065;52.472;13.380;2022-12-29T02:06:49;9.15;84.43
69009;SHT31;56065;52.472;13.380;2022-12-29T02:09:16;9.24;84.03
69009;SHT31;56065;52.472;13.380;2022-12-29T02:11:41;9.28;83.96
69009;SHT31;56065;52.472;13.380;2022-12-29T02:14:11;9.18;83.27
69009;SHT31;56065;52.472;13.380;2022-12-29T02:28:46;9.30;82.12
69009;SHT31;56065;52.472;13.380;2022-12-29T02:39:32;9.41;81.40
69009;SHT31;56065;52.472;13.380;2022-12-29T02:42:23;9.44;81.05
69009;SHT31;56065;52.472;13.380;2022-12-29T02:49:51;9.65;80.31
69009;SHT31;56065;52.472;13.380;2022-12-29T02:52:29;9.69;80.02
69009;SHT31;56065;52.472;13.380;2022-12-29T02:54:56;9.81;79.89
69009;SHT31;56065;52.472;13.380;2022-12-29T02:59:52;9.83;79.52
69009;SHT31;56065;52.472;13.380;2022-12-29T03:02:30;9.86;79.21
69009;SHT31;56065;52.472;13.380;2022-12-29T03:10:48;10.03;79.03
69009;SHT31;56065;52.472;13.380;2022-12-29T03:13:42;10.10;78.86
69009;SHT31;56065;52.472;13.380;2022-12-29T03:16:47;10.14;78.37
69009;SHT31;56065;52.472;13.380;2022-12-29T03:19:20;10.14;78.48
69009;SHT31;56065;52.472;13.380;2022-12-29T03:21:54;10.13;78.33
69009;SHT31;56065;52.472;13.380;2022-12-29T03:24:42;10.21;78.74
69009;SHT31;56065;52.472;13.380;2022-12-29T03:27:11;10.25;78.45
69009;SHT31;56065;52.472;13.380;2022-12-29T03:29:48;10.21;78.34
69009;SHT31;56065;52.472;13.380;2022-12-29T03:32:19;10.37;78.48
69009;SHT31;56065;52.472;13.380;2022-12-29T03:34:46;10.24;78.12
69009;SHT31;56065;52.472;13.380;2022-12-29T03:37:18;10.34;78.23
69009;SHT31;56065;52.472;13.380;2022-12-29T03:39:44;10.50;78.08
69009;SHT31;56065;52.472;13.380;2022-12-29T03:42:13;10.53;78.25
69009;SHT31;56065;52.472;13.380;2022-12-29T03:44:42;10.53;77.86
69009;SHT31;56065;52.472;13.380;2022-12-29T03:47:07;10.37;78.36
69009;SHT31;56065;52.472;13.380;2022-12-29T03:49:33;10.45;78.24
69009;SHT31;56065;52.472;13.380;2022-12-29T03:51:59;10.51;78.06
69009;SHT31;56065;52.472;13.380;2022-12-29T03:54:25;10.47;78.14
69009;SHT31;56065;52.472;13.380;2022-12-29T03:56:50;10.64;78.07
69009;SHT31;56065;52.472;13.380;2022-12-29T03:59:15;10.58;78.04
69009;SHT31;56065;52.472;13.380;2022-12-29T04:01:41;10.58;78.40
69009;SHT31;56065;52.472;13.380;2022-12-29T04:04:06;10.74;77.70
69009;SHT31;56065;52.472;13.380;2022-12-29T04:06:32;10.76;77.88
69009;SHT31;56065;52.472;13.380;2022-12-29T04:08:57;10.71;77.75
69009;SHT31;56065;52.472;13.380;2022-12-29T04:11:22;10.54;78.03
69009;SHT31;56065;52.472;13.380;2022-12-29T04:13:48;10.51;78.26
69009;SHT31;56065;52.472;13.380;2022-12-29T04:16:14;10.61;78.30
69009;SHT31;56065;52.472;13.380;2022-12-29T04:18:39;10.57;78.14
69009;SHT31;56065;52.472;13.380;2022-12-29T04:21:05;10.67;78.22
69009;SHT31;56065;52.472;13.380;2022-12-29T04:23:33;10.75;77.87
69009;SHT31;56065;52.472;13.380;2022-12-29T04:25:59;10.76;77.77
69009;SHT31;56065;52.472;13.380;2022-12-29T04:28:25;10.89;77.85
69009;SHT31;56065;52.472;13.380;2022-12-29T04:30:50;10.74;77.61
69009;SHT31;56065;52.472;13.380;2022-12-29T04:33:16;10.69;77.76
69009;SHT31;56065;52.472;13.380;2022-12-29T04:35:42;10.63;77.81
69009;SHT31;56065;52.472;13.380;2022-12-29T04:38:08;10.68;77.84
69009;SHT31;56065;52.472;13.380;2022-12-29T04:40:34;10.63;77.99
69009;SHT31;56065;52.472;13.380;2022-12-29T04:42:59;10.61;78.19
69009;SHT31;56065;52.472;13.380;2022-12-29T04:45:25;10.82;78.02
69009;SHT31;56065;52.472;13.380;2022-12-29T04:47:50;10.74;77.90
69009;SHT31;56065;52.472;13.380;2022-12-29T04:50:15;10.81;77.87
69009;SHT31;56065;52.472;13.380;2022-12-29T04:52:41;10.63;78.06
69009;SHT31;56065;52.472;13.380;2022-12-29T04:55:06;10.65;78.17
69009;SHT31;56065;52.472;13.380;2022-12-29T04:57:32;10.65;78.32
69009;SHT31;56065;52.472;13.380;2022-12-29T04:59:57;10.79;77.98
69009;SHT31;56065;52.472;13.380;2022-12-29T05:02:23;10.69;77.97
69009;SHT31;56065;52.472;13.380;2022-12-29T05:04:48;10.75;78.10
69009;SHT31;56065;52.472;13.380;2022-12-29T05:07:14;10.69;78.47
69009;SHT31;56065;52.472;13.380;2022-12-29T05:09:39;10.60;78.69
69009;SHT31;56065;52.472;13.380;2022-12-29T05:12:05;10.63;78.72
69009;SHT31;56065;52.472;13.380;2022-12-29T05:14:31;10.58;78.70
69009;SHT31;56065;52.472;13.380;2022-12-29T05:16:57;10.76;78.46
69009;SHT31;56065;52.472;13.380;2022-12-29T05:19:22;10.75;78.66
69009;SHT31;56065;52.472;13.380;2022-12-29T05:21:47;10.72;78.87
69009;SHT31;56065;52.472;13.380;2022-12-29T05:24:13;10.64;78.96
69009;SHT31;56065;52.472;13.380;2022-12-29T05:26:40;10.74;78.88
69009;SHT31;56065;52.472;13.380;2022-12-29T05:29:05;10.84;78.46
69009;SHT31;56065;52.472;13.380;2022-12-29T05:31:31;10.75;78.71
69009;SHT31;56065;52.472;13.380;2022-12-29T05:33:56;10.65;79.10
69009;SHT31;56065;52.472;13.380;2022-12-29T05:36:21;10.88;78.96
69009;SHT31;56065;52.472;13.380;2022-12-29T05:38:47;10.91;78.81
69009;SHT31;56065;52.472;13.380;2022-12-29T05:41:12;11.02;78.68
69009;SHT31;56065;52.472;13.380;2022-12-29T05:43:37;11.12;78.28
69009;SHT31;56065;52.472;13.380;2022-12-29T05:46:03;11.09;78.45
69009;SHT31;56065;52.472;13.380;2022-12-29T05:48:28;11.18;78.39
69009;SHT31;56065;52.472;13.380;2022-12-29T05:50:54;11.23;78.12
69009;SHT31;56065;52.472;13.380;2022-12-29T05:53:19;11.05;78.57
69009;SHT31;56065;52.472;13.380;2022-12-29T05:55:47;11.05;78.81
69009;SHT31;56065;52.472;13.380;2022-12-29T05:58:13;11.11;78.68
69009;SHT31;56065;52.472;13.380;2022-12-29T06:00:38;11.22;78.43
69009;SHT31;56065;52.472;13.380;2022-12-29T06:03:03;11.16;78.38
69009;SHT31;56065;52.472;13.380;2022-12-29T06:05:29;11.15;78.53
69009;SHT31;56065;52.472;13.380;2022-12-29T06:07:54;11.23;78.50
69009;SHT31;56065;52.472;13.380;2022-12-29T06:10:20;11.34;78.36
69009;SHT31;56065;52.472;13.380;2022-12-29T06:12:45;11.46;78.14
69009;SHT31;56065;52.472;13.380;2022-12-29T06:15:12;11.49;77.89
69009;SHT31;56065;52.472;13.380;2022-12-29T06:17:37;11.33;78.34
69009;SHT31;56065;52.472;13.380;2022-12-29T06:20:03;11.44;78.37
69009;SHT31;56065;52.472;13.380;2022-12-29T06:22:28;11.40;78.14
69009;SHT31;56065;52.472;13.380;2022-12-29T06:24:54;11.46;78.08
69009;SHT31;56065;52.472;13.380;2022-12-29T06:27:19;11.43;78.21
69009;SHT31;56065;52.472;13.380;2022-12-29T06:29:44;11.49;77.99
69009;SHT31;56065;52.472;13.380;2022-12-29T06:32:10;11.53;78.06
69009;SHT31;56065;52.472;13.380;2022-12-29T06:34:35;11.36;78.38
69009;SHT31;56065;52.472;13.380;2022-12-29T06:37:00;11.50;78.10
69009;SHT31;56065;52.472;13.380;2022-12-29T06:39:26;11.57;78.00
69009;SHT31;56065;52.472;13.380;2022-12-29T06:41:53;11.56;77.85
69009;SHT31;56065;52.472;13.380;2022-12-29T06:44:19;11.43;78.29
69009;SHT31;56065;52.472;13.380;2022-12-29T06:46:45;11.64;78.12
69009;SHT31;56065;52.472;13.380;2022-12-29T06:49:10;11.59;78.21
69009;SHT31;56065;52.472;13.380;2022-12-29T06:51:35;11.60;78.01
69009;SHT31;56065;52.472;13.380;2022-12-29T06:54:01;11.62;78.03
69009;SHT31;56065;52.472;13.380;2022-12-29T06:56:26;11.53;77.81
69009;SHT31;56065;52.472;13.380;2022-12-29T06:58:51;11.46;78.28
69009;SHT31;56065;52.472;13.380;2022-12-29T07:01:17;11.29;78.60
69009;SHT31;56065;52.472;13.380;2022-12-29T07:03:42;11.39;78.55
69009;SHT31;56065;52.472;13.380;2022-12-29T07:06:08;11.33;78.63
69009;SHT31;56065;52.472;13.380;2022-12-29T07:08:33;11.34;78.58
69009;SHT31;56065;52.472;13.380;2022-12-29T07:10:59;11.36;78.38
69009;SHT31;56065;52.472;13.380;2022-12-29T07:13:24;11.22;78.78
69009;SHT31;56065;52.472;13.380;2022-12-29T07:15:49;11.16;79.07
69009;SHT31;56065;52.472;13.380;2022-12-29T07:18:15;11.09;79.26
69009;SHT31;56065;52.472;13.380;2022-12-29T07:20:40;11.11;79.31
69009;SHT31;56065;52.472;13.380;2022-12-29T07:23:05;11.15;79.33
69009;SHT31;56065;52.472;13.380;2022-12-29T07:25:31;11.18;79.18
69009;SHT31;56065;52.472;13.380;2022-12-29T07:27:56;11.15;79.31
69009;SHT31;56065;52.472;13.380;2022-12-29T07:30:21;11.26;79.06
69009;SHT31;56065;52.472;13.380;2022-12-29T07:32:47;11.16;79.35
69009;SHT31;56065;52.472;13.380;2022-12-29T07:35:12;11.16;79.56
69009;SHT31;56065;52.472;13.380;2022-12-29T07:37:37;11.18;79.46
69009;SHT31;56065;52.472;13.380;2022-12-29T07:40:03;11.03;79.82
69009;SHT31;56065;52.472;13.380;2022-12-29T07:42:29;11.06;79.96
69009;SHT31;56065;52.472;13.380;2022-12-29T07:44:54;11.27;79.58
69009;SHT31;56065;52.472;13.380;2022-12-29T07:47:19;11.25;79.59
69009;SHT31;56065;52.472;13.380;2022-12-29T07:49:45;11.34;79.47
69009;SHT31;56065;52.472;13.380;2022-12-29T07:52:10;11.53;79.01
69009;SHT31;56065;52.472;13.380;2022-12-29T07:54:35;11.52;79.09
69009;SHT31;56065;52.472;13.380;2022-12-29T07:57:01;11.53;78.99
69009;SHT31;56065;52.472;13.380;2022-12-29T07:59:26;11.59;78.82
69009;SHT31;56065;52.472;13.380;2022-12-29T08:01:52;11.70;78.76
69009;SHT31;56065;52.472;13.380;2022-12-29T08:04:17;11.78;78.30
69009;SHT31;56065;52.472;13.380;2022-12-29T08:06:43;11.84;78.27
69009;SHT31;56065;52.472;13.380;2022-12-29T08:09:10;11.69;78.35
69009;SHT31;56065;52.472;13.380;2022-12-29T08:11:35;11.87;78.15
69009;SHT31;56065;52.472;13.380;2022-12-29T08:14:02;11.81;78.18
69009;SHT31;56065;52.472;13.380;2022-12-29T08:16:27;11.59;78.46
69009;SHT31;56065;52.472;13.380;2022-12-29T08:18:52;11.80;78.45
69009;SHT31;56065;52.472;13.380;2022-12-29T08:21:18;11.83;78.25
69009;SHT31;56065;52.472;13.380;2022-12-29T08:23:43;11.83;78.09
69009;SHT31;56065;52.472;13.380;2022-12-29T08:26:09;11.90;78.05
69009;SHT31;56065;52.472;13.380;2022-12-29T08:28:35;11.77;78.28
69009;SHT31;56065;52.472;13.380;2022-12-29T08:31:01;11.87;77.64
69009;SHT31;56065;52.472;13.380;2022-12-29T08:33:27;11.83;78.17
69009;SHT31;56065;52.472;13.380;2022-12-29T08:35:59;11.78;78.35
69009;SHT31;56065;52.472;13.380;2022-12-29T08:38:24;11.90;77.87
69009;SHT31;56065;52.472;13.380;2022-12-29T08:40:51;12.04;77.63
69009;SHT31;56065;52.472;13.380;2022-12-29T08:43:16;11.84;78.02
69009;SHT31;56065;52.472;13.380;2022-12-29T08:45:41;11.83;78.12
69009;SHT31;56065;52.472;13.380;2022-12-29T08:48:07;11.84;78.13
69009;SHT31;56065;52.472;13.380;2022-12-29T08:50:32;11.83;78.12
69009;SHT31;56065;52.472;13.380;2022-12-29T08:52:58;12.08;77.65
69009;SHT31;56065;52.472;13.380;2022-12-29T08:55:23;12.12;77.39
69009;SHT31;56065;52.472;13.380;2022-12-29T08:57:48;12.15;77.23
69009;SHT31;56065;52.472;13.380;2022-12-29T09:00:14;12.14;77.36
69009;SHT31;56065;52.472;13.380;2022-12-29T09:02:40;12.15;77.20
69009;SHT31;56065;52.472;13.380;2022-12-29T09:05:05;12.29;76.71
69009;SHT31;56065;52.472;13.380;2022-12-29T09:07:31;12.28;76.87
69009;SHT31;56065;52.472;13.380;2022-12-29T09:09:56;12.36;76.69
69009;SHT31;56065;52.472;13.380;2022-12-29T09:12:21;12.57;76.73
69009;SHT31;56065;52.472;13.380;2022-12-29T09:14:47;12.46;76.47
69009;SHT31;56065;52.472;13.380;2022-12-29T09:17:13;12.62;75.99
69009;SHT31;56065;52.472;13.380;2022-12-29T09:19:57;12.86;75.81
69009;SHT31;56065;52.472;13.380;2022-12-29T09:22:22;13.41;74.54
69009;SHT31;56065;52.472;13.380;2022-12-29T09:24:48;13.71;73.18
69009;SHT31;56065;52.472;13.380;2022-12-29T09:27:13;13.93;72.58
69009;SHT31;56065;52.472;13.380;2022-12-29T09:29:38;14.09;72.43
69009;SHT31;56065;52.472;13.380;2022-12-29T09:32:04;13.92;72.69
69009;SHT31;56065;52.472;13.380;2022-12-29T09:34:29;14.30;71.53
69009;SHT31;56065;52.472;13.380;2022-12-29T09:36:54;14.30;71.64
69009;SHT31;56065;52.472;13.380;2022-12-29T09:39:21;13.87;72.25
69009;SHT31;56065;52.472;13.380;2022-12-29T09:42:06;13.54;73.47
69009;SHT31;56065;52.472;13.380;2022-12-29T09:44:51;13.44;73.95
69009;SHT31;56065;52.472;13.380;2022-12-29T09:47:21;13.40;74.09
69009;SHT31;56065;52.472;13.380;2022-12-29T09:49:51;13.43;74.05
69009;SHT31;56065;52.472;13.380;2022-12-29T09:52:22;13.75;73.34
69009;SHT31;56065;52.472;13.380;2022-12-29T09:54:55;13.66;73.37
69009;SHT31;56065;52.472;13.380;2022-12-29T09:57:27;13.58;73.53
69009;SHT31;56065;52.472;13.380;2022-12-29T10:00:00;13.44;74.18
69009;SHT31;56065;52.472;13.380;2022-12-29T10:02:37;13.50;73.85
69009;SHT31;56065;52.472;13.380;2022-12-29T10:05:04;13.27;74.34
69009;SHT31;56065;52.472;13.380;2022-12-29T10:07:55;13.50;73.86
69009;SHT31;56065;52.472;13.380;2022-12-29T10:10:35;13.38;74.38
69009;SHT31;56065;52.472;13.380;2022-12-29T10:13:36;13.59;74.17
69009;SHT31;56065;52.472;13.380;2022-12-29T10:16:21;13.30;74.84
69009;SHT31;56065;52.472;13.380;2022-12-29T10:21:56;14.33;72.55
69009;SHT31;56065;52.472;13.380;2022-12-29T10:24:26;14.29;72.63
69009;SHT31;56065;52.472;13.380;2022-12-29T10:26:53;14.53;71.95
69009;SHT31;56065;52.472;13.380;2022-12-29T10:29:24;14.78;71.06
69009;SHT31;56065;52.472;13.380;2022-12-29T10:32:02;14.74;71.27
69009;SHT31;56065;52.472;13.380;2022-12-29T10:34:36;14.48;71.95
69009;SHT31;56065;52.472;13.380;2022-12-29T10:37:17;14.60;72.10
69009;SHT31;56065;52.472;13.380;2022-12-29T10:39:54;14.63;72.13
69009;SHT31;56065;52.472;13.380;2022-12-29T10:42:35;14.74;71.22
69009;SHT31;56065;52.472;13.380;2022-12-29T10:45:03;14.87;70.88
69009;SHT31;56065;52.472;13.380;2022-12-29T10:47:34;14.71;71.44
69009;SHT31;56065;52.472;13.380;2022-12-29T10:50:01;14.50;71.55
69009;SHT31;56065;52.472;13.380;2022-12-29T10:52:27;14.43;71.68
69009;SHT31;56065;52.472;13.380;2022-12-29T10:55:03;14.36;72.16
69009;SHT31;56065;52.472;13.380;2022-12-29T10:57:36;14.40;72.03
69009;SHT31;56065;52.472;13.380;2022-12-29T11:00:15;14.05;72.79
69009;SHT31;56065;52.472;13.380;2022-12-29T11:02:52;13.96;73.21
69009;SHT31;56065;52.472;13.380;2022-12-29T11:08:19;13.76;73.59
69009;SHT31;56065;52.472;13.380;2022-12-29T11:10:46;13.68;73.86
69009;SHT31;56065;52.472;13.380;2022-12-29T11:13:25;13.72;73.82
69009;SHT31;56065;52.472;13.380;2022-12-29T11:15:51;13.74;73.79
69009;SHT31;56065;52.472;13.380;2022-12-29T11:18:31;13.68;74.10
69009;SHT31;56065;52.472;13.380;2022-12-29T11:21:02;13.71;74.31
69009;SHT31;56065;52.472;13.380;2022-12-29T11:23:39;13.55;75.11
69009;SHT31;56065;52.472;13.380;2022-12-29T11:28:40;13.35;75.70
69009;SHT31;56065;52.472;13.380;2022-12-29T11:31:07;13.45;75.99
69009;SHT31;56065;52.472;13.380;2022-12-29T11:33:35;13.51;76.16
69009;SHT31;56065;52.472;13.380;2022-12-29T11:36:27;13.35;77.19
69009;SHT31;56065;52.472;13.380;2022-12-29T11:38:55;13.23;78.35
69009;SHT31;56065;52.472;13.380;2022-12-29T11:41:26;13.08;79.18
69009;SHT31;56065;52.472;13.380;2022-12-29T11:43:53;12.77;79.68
69009;SHT31;56065;52.472;13.380;2022-12-29T11:46:25;12.70;80.16
69009;SHT31;56065;52.472;13.380;2022-12-29T11:48:52;12.94;79.74
69009;SHT31;56065;52.472;13.380;2022-12-29T11:51:23;12.86;79.35
69009;SHT31;56065;52.472;13.380;2022-12-29T11:53:52;12.90;79.67
69009;SHT31;56065;52.472;13.380;2022-12-29T11:56:37;12.87;80.20
69009;SHT31;56065;52.472;13.380;2022-12-29T12:02:00;12.34;81.53
69009;SHT31;56065;52.472;13.380;2022-12-29T12:04:32;12.21;82.23
69009;SHT31;56065;52.472;13.380;2022-12-29T12:07:32;11.77;84.83
69009;SHT31;56065;52.472;13.380;2022-12-29T12:10:03;11.57;86.38
69009;SHT31;56065;52.472;13.380;2022-12-29T12:12:37;11.42;88.76
69009;SHT31;56065;52.472;13.380;2022-12-29T12:15:05;11.19;87.98
69009;SHT31;56065;52.472;13.380;2022-12-29T12:17:35;11.03;89.50
69009;SHT31;56065;52.472;13.380;2022-12-29T12:23:14;10.98;89.55
69009;SHT31;56065;52.472;13.380;2022-12-29T12:26:09;10.92;89.36
69009;SHT31;56065;52.472;13.380;2022-12-29T12:29:12;10.94;89.45
69009;SHT31;56065;52.472;13.380;2022-12-29T12:31:55;10.95;90.04
69009;SHT31;56065;52.472;13.380;2022-12-29T12:34:29;10.95;88.95
69009;SHT31;56065;52.472;13.380;2022-12-29T12:37:06;11.02;88.77
69009;SHT31;56065;52.472;13.380;2022-12-29T12:54:10;10.68;88.49
69009;SHT31;56065;52.472;13.380;2022-12-29T13:02:02;10.81;89.61
69009;SHT31;56065;52.472;13.380;2022-12-29T13:10:30;11.08;88.03
69009;SHT31;56065;52.472;13.380;2022-12-29T13:15:58;11.26;87.49
69009;SHT31;56065;52.472;13.380;2022-12-29T13:18:37;11.46;87.17
69009;SHT31;56065;52.472;13.380;2022-12-29T13:24:12;11.44;86.44
69009;SHT31;56065;52.472;13.380;2022-12-29T13:26:43;11.22;87.26
69009;SHT31;56065;52.472;13.380;2022-12-29T13:29:17;11.32;87.24
69009;SHT31;56065;52.472;13.380;2022-12-29T13:37:18;11.11;87.39
69009;SHT31;56065;52.472;13.380;2022-12-29T13:39:55;10.96;87.44
69009;SHT31;56065;52.472;13.380;2022-12-29T13:42:22;10.95;87.44
69009;SHT31;56065;52.472;13.380;2022-12-29T13:47:36;10.99;87.72
69009;SHT31;56065;52.472;13.380;2022-12-29T13:50:05;11.03;87.70
69009;SHT31;56065;52.472;13.380;2022-12-29T13:52:48;11.13;87.24
69009;SHT31;56065;52.472;13.380;2022-12-29T13:55:29;11.25;86.66
69009;SHT31;56065;52.472;13.380;2022-12-29T13:58:18;11.25;86.87
69009;SHT31;56065;52.472;13.380;2022-12-29T14:01:00;11.30;86.77
69009;SHT31;56065;52.472;13.380;2022-12-29T14:03:45;11.26;86.65
69009;SHT31;56065;52.472;13.380;2022-12-29T14:06:24;11.32;86.40
69009;SHT31;56065;52.472;13.380;2022-12-29T14:09:02;11.22;86.90
69009;SHT31;56065;52.472;13.380;2022-12-29T14:11:40;11.18;86.90
69009;SHT31;56065;52.472;13.380;2022-12-29T14:14:24;11.11;87.12
69009;SHT31;56065;52.472;13.380;2022-12-29T14:16:51;11.08;87.12
69009;SHT31;56065;52.472;13.380;2022-12-29T14:19:30;11.11;87.87
69009;SHT31;56065;52.472;13.380;2022-12-29T14:22:04;11.15;87.55
69009;SHT31;56065;52.472;13.380;2022-12-29T14:34:56;11.13;86.62
69009;SHT31;56065;52.472;13.380;2022-12-29T14:37:35;11.16;86.14
69009;SHT31;56065;52.472;13.380;2022-12-29T14:40:23;11.12;86.49
69009;SHT31;56065;52.472;13.380;2022-12-29T14:42:51;11.25;86.03
69009;SHT31;56065;52.472;13.380;2022-12-29T14:47:46;11.22;86.18
69009;SHT31;56065;52.472;13.380;2022-12-29T14:50:40;11.13;86.01
69009;SHT31;56065;52.472;13.380;2022-12-29T14:53:46;11.15;86.05
69009;SHT31;56065;52.472;13.380;2022-12-29T14:56:14;11.16;85.90
69009;SHT31;56065;52.472;13.380;2022-12-29T14:58:53;11.11;86.00
69009;SHT31;56065;52.472;13.380;2022-12-29T15:01:24;11.08;85.97
69009;SHT31;56065;52.472;13.380;2022-12-29T15:03:52;10.89;86.37
69009;SHT31;56065;52.472;13.380;2022-12-29T15:06:18;10.82;86.87
69009;SHT31;56065;52.472;13.380;2022-12-29T15:12:38;10.67;86.93
69009;SHT31;56065;52.472;13.380;2022-12-29T15:15:18;10.65;86.88
69009;SHT31;56065;52.472;13.380;2022-12-29T15:17:44;10.72;87.07
69009;SHT31;56065;52.472;13.380;2022-12-29T15:20:25;10.76;87.19
69009;SHT31;56065;52.472;13.380;2022-12-29T15:23:00;10.71;86.24
69009;SHT31;56065;52.472;13.380;2022-12-29T15:25:27;10.68;85.90
69009;SHT31;56065;52.472;13.380;2022-12-29T15:28:02;10.63;85.84
69009;SHT31;56065;52.472;13.380;2022-12-29T15:30:28;10.54;86.38
69009;SHT31;56065;52.472;13.380;2022-12-29T15:32:54;10.50;86.92
69009;SHT31;56065;52.472;13.380;2022-12-29T15:35:36;10.51;86.75
69009;SHT31;56065;52.472;13.380;2022-12-29T15:38:23;10.48;86.74
69009;SHT31;56065;52.472;13.380;2022-12-29T15:44:17;10.43;86.94
69009;SHT31;56065;52.472;13.380;2022-12-29T15:46:45;10.50;86.96
69009;SHT31;56065;52.472;13.380;2022-12-29T15:49:13;10.50;86.87
69009;SHT31;56065;52.472;13.380;2022-12-29T15:51:39;10.47;86.95
69009;SHT31;56065;52.472;13.380;2022-12-29T15:54:06;10.41;86.61
69009;SHT31;56065;52.472;13.380;2022-12-29T15:56:32;10.43;86.46
69009;SHT31;56065;52.472;13.380;2022-12-29T15:58:59;10.47;86.79
69009;SHT31;56065;52.472;13.380;2022-12-29T16:01:30;10.51;86.08
69009;SHT31;56065;52.472;13.380;2022-12-29T16:03:58;10.55;85.87
69009;SHT31;56065;52.472;13.380;2022-12-29T16:11:34;10.60;85.22
69009;SHT31;56065;52.472;13.380;2022-12-29T16:14:02;10.63;85.13
69009;SHT31;56065;52.472;13.380;2022-12-29T16:16:39;10.71;84.61
69009;SHT31;56065;52.472;13.380;2022-12-29T16:19:22;10.76;84.16
69009;SHT31;56065;52.472;13.380;2022-12-29T16:21:49;10.78;83.76
69009;SHT31;56065;52.472;13.380;2022-12-29T16:24:17;10.76;83.90
69009;SHT31;56065;52.472;13.380;2022-12-29T16:26:48;10.72;83.54
69009;SHT31;56065;52.472;13.380;2022-12-29T16:29:15;10.71;83.23
69009;SHT31;56065;52.472;13.380;2022-12-29T16:31:55;10.69;82.76
69009;SHT31;56065;52.472;13.380;2022-12-29T16:37:05;10.65;82.70
69009;SHT31;56065;52.472;13.380;2022-12-29T16:39:34;10.65;82.65
69009;SHT31;56065;52.472;13.380;2022-12-29T16:42:01;10.61;82.55
69009;SHT31;56065;52.472;13.380;2022-12-29T16:44:46;10.63;82.24
69009;SHT31;56065;52.472;13.380;2022-12-29T16:49:39;10.55;82.13
69009;SHT31;56065;52.472;13.380;2022-12-29T16:52:13;10.47;81.84
69009;SHT31;56065;52.472;13.380;2022-12-29T16:54:41;10.48;82.06
69009;SHT31;56065;52.472;13.380;2022-12-29T16:57:08;10.44;81.97
69009;SHT31;56065;52.472;13.380;2022-12-29T16:59:38;10.41;81.30
69009;SHT31;56065;52.472;13.380;2022-12-29T17:02:07;10.38;81.26
69009;SHT31;56065;52.472;13.380;2022-12-29T17:04:36;10.37;81.14
69009;SHT31;56065;52.472;13.380;2022-12-29T17:07:01;10.40;80.88
69009;SHT31;56065;52.472;13.380;2022-12-29T17:09:27;10.34;80.83
69009;SHT31;56065;52.472;13.380;2022-12-29T17:11:55;10.37;80.51
69009;SHT31;56065;52.472;13.380;2022-12-29T17:15:03;10.40;80.20
69009;SHT31;56065;52.472;13.380;2022-12-29T17:17:35;10.47;80.09
69009;SHT31;56065;52.472;13.380;2022-12-29T17:22:40;10.60;79.05
69009;SHT31;56065;52.472;13.380;2022-12-29T17:25:05;10.67;78.79
69009;SHT31;56065;52.472;13.380;2022-12-29T17:30:19;10.71;78.38
69009;SHT31;56065;52.472;13.380;2022-12-29T17:32:53;10.76;78.26
69009;SHT31;56065;52.472;13.380;2022-12-29T17:35:20;10.82;78.29
69009;SHT31;56065;52.472;13.380;2022-12-29T17:37:46;10.81;77.96
69009;SHT31;56065;52.472;13.380;2022-12-29T17:40:15;10.79;78.13
69009;SHT31;56065;52.472;13.380;2022-12-29T17:42:46;10.79;77.87
69009;SHT31;56065;52.472;13.380;2022-12-29T17:45:27;10.79;77.85